Kakushu Maru — JG5688 — position and weather

sailwx.info

Track history (hours):
 
Tides and Currents Weather Stations Pressure Air Temp Water Temp Dewpoint Dewpoint Depression Visibility Wind Speed Wind Dir Waves Ship Positions

Kakushu Maru

Last reported at 2017-Feb-20 14:23 UTC. Time now 2017-Feb-23 02:41 UTC.
Position N 33°44' E 132°15'.

Length 105 m; draft 6.2 m.

Type: Tanker. MMSI: 431101016.

Date/timePositionNaut miles runAvg speedWind from/ knotsBaromVisibWave heightAir tempDewpointWater temp
2017-Feb-20 14:23N 33°44' E 132°15'1214.4
2017-Feb-20 13:33N 33°48' E 132°28'1514.7
2017-Feb-20 12:33N 33°57' E 132°42'1 0.1
2017-Feb-19 18:33N 33°57' E 132°43'1515.3
2017-Feb-19 17:33N 33°48' E 132°29'1615.3
2017-Feb-19 16:31N 33°42' E 132°11'8 0.3
2017-Feb-18 11:24N 33°45' E 132°20'1213.9
2017-Feb-18 10:33N 33°50' E 132°32'1414.4
2017-Feb-18 09:33N 34°01' E 132°45'1 0.0
2017-Feb-17 08:19N 34°01' E 132°46'1013.4
2017-Feb-17 07:33N 33°53' E 132°37'1613.9
2017-Feb-17 06:22N 33°45' E 132°20'  
2017-Feb-13 12:21N 33°45' E 132°19'1012.7
2017-Feb-13 11:33N 33°49' E 132°30'1312.8
2017-Feb-13 10:33N 33°57' E 132°42'4 0.2
2017-Feb-12 17:22N 34°00' E 132°46'1012.9
2017-Feb-12 16:33N 33°53' E 132°37'1413.6
2017-Feb-12 15:34N 33°45' E 132°23'4 0.2
2017-Feb-11 13:08N 33°45' E 132°18'813.1
2017-Feb-11 12:33N 33°47' E 132°26'1312.6
2017-Feb-11 11:32N 33°55' E 132°38'  
Track history (hours):
 
Tides and Currents Weather Stations Pressure Air Temp Water Temp Dewpoint Dewpoint Depression Visibility Wind Speed Wind Dir Waves Ship Positions

Kakushu Maru

Last reported at 2017-Feb-20 14:23 UTC. Time now 2017-Feb-23 02:41 UTC.
Position N 33°44' E 132°15'.

Length 105 m; draft 6.2 m.

Type: Tanker. MMSI: 431101016.

Date/timePositionNaut miles runAvg speedWind from/ knotsBaromVisibWave heightAir tempDewpointWater temp
2017-Feb-20 14:23N 33°44' E 132°15'1214.4
2017-Feb-20 13:33N 33°48' E 132°28'1514.7
2017-Feb-20 12:33N 33°57' E 132°42'1 0.1
2017-Feb-19 18:33N 33°57' E 132°43'1515.3
2017-Feb-19 17:33N 33°48' E 132°29'1615.3
2017-Feb-19 16:31N 33°42' E 132°11'8 0.3
2017-Feb-18 11:24N 33°45' E 132°20'1213.9
2017-Feb-18 10:33N 33°50' E 132°32'1414.4
2017-Feb-18 09:33N 34°01' E 132°45'1 0.0
2017-Feb-17 08:19N 34°01' E 132°46'1013.4
2017-Feb-17 07:33N 33°53' E 132°37'1613.9
2017-Feb-17 06:22N 33°45' E 132°20'  
2017-Feb-13 12:21N 33°45' E 132°19'1012.7
2017-Feb-13 11:33N 33°49' E 132°30'1312.8
2017-Feb-13 10:33N 33°57' E 132°42'4 0.2
2017-Feb-12 17:22N 34°00' E 132°46'1012.9
2017-Feb-12 16:33N 33°53' E 132°37'1413.6
2017-Feb-12 15:34N 33°45' E 132°23'4 0.2
2017-Feb-11 13:08N 33°45' E 132°18'813.1
2017-Feb-11 12:33N 33°47' E 132°26'1312.6
2017-Feb-11 11:32N 33°55' E 132°38'  

Dump ship's entire track history